sensor_id;sensor_type;location;lat;lon;timestamp;temperature;humidity
5938;DHT22;2994;51.220;4.412;2024-01-30T00:02:23;13.59;67.72
5938;DHT22;2994;51.220;4.412;2024-01-30T00:04:48;13.62;67.55
5938;DHT22;2994;51.220;4.412;2024-01-30T00:07:14;13.60;67.62
5938;DHT22;2994;51.220;4.412;2024-01-30T00:09:39;13.64;67.49
5938;DHT22;2994;51.220;4.412;2024-01-30T00:12:07;13.63;67.55
5938;DHT22;2994;51.220;4.412;2024-01-30T00:14:33;13.63;67.49
5938;DHT22;2994;51.220;4.412;2024-01-30T00:16:58;13.64;67.41
5938;DHT22;2994;51.220;4.412;2024-01-30T00:19:24;13.65;67.46
5938;DHT22;2994;51.220;4.412;2024-01-30T00:21:49;13.66;67.46
5938;DHT22;2994;51.220;4.412;2024-01-30T00:24:15;13.70;67.27
5938;DHT22;2994;51.220;4.412;2024-01-30T00:26:40;13.69;67.30
5938;DHT22;2994;51.220;4.412;2024-01-30T00:29:06;13.68;67.34
5938;DHT22;2994;51.220;4.412;2024-01-30T00:31:32;13.67;67.33
5938;DHT22;2994;51.220;4.412;2024-01-30T00:33:57;13.70;67.25
5938;DHT22;2994;51.220;4.412;2024-01-30T00:36:23;13.71;67.22
5938;DHT22;2994;51.220;4.412;2024-01-30T00:38:48;13.74;67.06
5938;DHT22;2994;51.220;4.412;2024-01-30T00:41:14;13.74;67.22
5938;DHT22;2994;51.220;4.412;2024-01-30T00:43:39;13.74;67.08
5938;DHT22;2994;51.220;4.412;2024-01-30T00:46:05;13.73;67.15
5938;DHT22;2994;51.220;4.412;2024-01-30T00:48:30;13.71;67.14
5938;DHT22;2994;51.220;4.412;2024-01-30T00:50:56;13.74;67.04
5938;DHT22;2994;51.220;4.412;2024-01-30T00:53:21;13.74;67.10
5938;DHT22;2994;51.220;4.412;2024-01-30T00:55:47;13.73;67.13
5938;DHT22;2994;51.220;4.412;2024-01-30T00:58:12;13.76;66.94
5938;DHT22;2994;51.220;4.412;2024-01-30T01:00:38;13.74;67.01
5938;DHT22;2994;51.220;4.412;2024-01-30T01:03:04;13.73;67.10
5938;DHT22;2994;51.220;4.412;2024-01-30T01:05:30;13.74;67.04
5938;DHT22;2994;51.220;4.412;2024-01-30T01:07:55;13.73;67.04
5938;DHT22;2994;51.220;4.412;2024-01-30T01:10:21;13.75;66.96
5938;DHT22;2994;51.220;4.412;2024-01-30T01:12:47;13.74;66.90
5938;DHT22;2994;51.220;4.412;2024-01-30T01:15:13;13.71;67.01
5938;DHT22;2994;51.220;4.412;2024-01-30T01:17:39;13.71;67.10
5938;DHT22;2994;51.220;4.412;2024-01-30T01:20:05;13.71;67.10
5938;DHT22;2994;51.220;4.412;2024-01-30T01:22:31;13.70;67.06
5938;DHT22;2994;51.220;4.412;2024-01-30T01:24:57;13.71;67.08
5938;DHT22;2994;51.220;4.412;2024-01-30T01:27:23;13.71;67.10
5938;DHT22;2994;51.220;4.412;2024-01-30T01:29:48;13.71;67.06
5938;DHT22;2994;51.220;4.412;2024-01-30T01:32:14;13.71;67.10
5938;DHT22;2994;51.220;4.412;2024-01-30T01:34:39;13.69;67.10
5938;DHT22;2994;51.220;4.412;2024-01-30T01:37:05;13.68;67.13
5938;DHT22;2994;51.220;4.412;2024-01-30T01:39:31;13.69;67.20
5938;DHT22;2994;51.220;4.412;2024-01-30T01:41:56;13.68;67.19
5938;DHT22;2994;51.220;4.412;2024-01-30T01:44:21;13.67;67.23
5938;DHT22;2994;51.220;4.412;2024-01-30T01:46:47;13.66;67.30
5938;DHT22;2994;51.220;4.412;2024-01-30T01:49:14;13.66;67.33
5938;DHT22;2994;51.220;4.412;2024-01-30T01:51:40;13.64;67.39
5938;DHT22;2994;51.220;4.412;2024-01-30T01:54:06;13.63;67.36
5938;DHT22;2994;51.220;4.412;2024-01-30T01:56:33;13.61;67.51
5938;DHT22;2994;51.220;4.412;2024-01-30T01:59:06;13.59;67.62
5938;DHT22;2994;51.220;4.412;2024-01-30T02:01:38;13.56;67.68
5938;DHT22;2994;51.220;4.412;2024-01-30T02:04:07;13.55;67.72
5938;DHT22;2994;51.220;4.412;2024-01-30T02:06:33;13.54;67.73
5938;DHT22;2994;51.220;4.412;2024-01-30T02:08:59;13.51;67.75
5938;DHT22;2994;51.220;4.412;2024-01-30T02:11:24;13.51;67.77
5938;DHT22;2994;51.220;4.412;2024-01-30T02:13:50;13.50;67.82
5938;DHT22;2994;51.220;4.412;2024-01-30T02:16:16;13.50;67.84
5938;DHT22;2994;51.220;4.412;2024-01-30T02:18:42;13.50;67.91
5938;DHT22;2994;51.220;4.412;2024-01-30T02:21:10;13.49;67.91
5938;DHT22;2994;51.220;4.412;2024-01-30T02:23:36;13.48;67.96
5938;DHT22;2994;51.220;4.412;2024-01-30T02:26:02;13.47;67.93
5938;DHT22;2994;51.220;4.412;2024-01-30T02:28:28;13.48;68.06
5938;DHT22;2994;51.220;4.412;2024-01-30T02:30:53;13.47;68.13
5938;DHT22;2994;51.220;4.412;2024-01-30T02:33:19;13.48;68.12
5938;DHT22;2994;51.220;4.412;2024-01-30T02:35:44;13.51;68.13
5938;DHT22;2994;51.220;4.412;2024-01-30T02:38:10;13.49;68.17
5938;DHT22;2994;51.220;4.412;2024-01-30T02:40:36;13.50;68.26
5938;DHT22;2994;51.220;4.412;2024-01-30T02:43:02;13.50;68.28
5938;DHT22;2994;51.220;4.412;2024-01-30T02:45:28;13.51;68.33
5938;DHT22;2994;51.220;4.412;2024-01-30T02:47:53;13.52;68.23
5938;DHT22;2994;51.220;4.412;2024-01-30T02:50:19;13.54;68.18
5938;DHT22;2994;51.220;4.412;2024-01-30T02:52:44;13.54;68.23
5938;DHT22;2994;51.220;4.412;2024-01-30T02:55:10;13.55;68.23
5938;DHT22;2994;51.220;4.412;2024-01-30T02:57:35;13.54;68.30
5938;DHT22;2994;51.220;4.412;2024-01-30T03:00:01;13.55;68.33
5938;DHT22;2994;51.220;4.412;2024-01-30T03:02:28;13.55;68.36
5938;DHT22;2994;51.220;4.412;2024-01-30T03:04:53;13.55;68.39
5938;DHT22;2994;51.220;4.412;2024-01-30T03:07:18;13.58;68.34
5938;DHT22;2994;51.220;4.412;2024-01-30T03:09:44;13.59;68.45
5938;DHT22;2994;51.220;4.412;2024-01-30T03:12:10;13.60;68.38
5938;DHT22;2994;51.220;4.412;2024-01-30T03:14:35;13.60;68.43
5938;DHT22;2994;51.220;4.412;2024-01-30T03:17:01;13.62;68.33
5938;DHT22;2994;51.220;4.412;2024-01-30T03:19:26;13.64;68.43
5938;DHT22;2994;51.220;4.412;2024-01-30T03:21:52;13.65;68.49
5938;DHT22;2994;51.220;4.412;2024-01-30T03:24:18;13.66;68.45
5938;DHT22;2994;51.220;4.412;2024-01-30T03:26:43;13.65;68.54
5938;DHT22;2994;51.220;4.412;2024-01-30T03:29:09;13.66;68.55
5938;DHT22;2994;51.220;4.412;2024-01-30T03:31:35;13.68;68.52
5938;DHT22;2994;51.220;4.412;2024-01-30T03:34:01;13.68;68.56
5938;DHT22;2994;51.220;4.412;2024-01-30T03:36:26;13.70;68.60
5938;DHT22;2994;51.220;4.412;2024-01-30T03:38:52;13.70;68.53
5938;DHT22;2994;51.220;4.412;2024-01-30T03:41:17;13.71;68.52
5938;DHT22;2994;51.220;4.412;2024-01-30T03:43:43;13.71;68.52
5938;DHT22;2994;51.220;4.412;2024-01-30T03:46:08;13.73;68.58
5938;DHT22;2994;51.220;4.412;2024-01-30T03:48:34;13.71;68.60
5938;DHT22;2994;51.220;4.412;2024-01-30T03:50:59;13.73;68.55
5938;DHT22;2994;51.220;4.412;2024-01-30T03:53:24;13.76;68.50
5938;DHT22;2994;51.220;4.412;2024-01-30T03:55:50;13.74;68.59
5938;DHT22;2994;51.220;4.412;2024-01-30T03:58:16;13.75;68.60
5938;DHT22;2994;51.220;4.412;2024-01-30T04:00:41;13.75;68.55
5938;DHT22;2994;51.220;4.412;2024-01-30T04:03:07;13.75;68.52
5938;DHT22;2994;51.220;4.412;2024-01-30T04:05:32;13.74;68.65
5938;DHT22;2994;51.220;4.412;2024-01-30T04:07:58;13.76;68.57
5938;DHT22;2994;51.220;4.412;2024-01-30T04:10:24;13.75;68.67
5938;DHT22;2994;51.220;4.412;2024-01-30T04:12:50;13.74;68.68
5938;DHT22;2994;51.220;4.412;2024-01-30T04:15:17;13.75;68.74
5938;DHT22;2994;51.220;4.412;2024-01-30T04:17:43;13.75;68.77
5938;DHT22;2994;51.220;4.412;2024-01-30T04:20:15;13.75;68.74
5938;DHT22;2994;51.220;4.412;2024-01-30T04:22:43;13.77;68.75
5938;DHT22;2994;51.220;4.412;2024-01-30T04:25:08;13.78;68.65
5938;DHT22;2994;51.220;4.412;2024-01-30T04:27:34;13.77;68.65
5938;DHT22;2994;51.220;4.412;2024-01-30T04:29:59;13.76;68.75
5938;DHT22;2994;51.220;4.412;2024-01-30T04:32:25;13.78;68.66
5938;DHT22;2994;51.220;4.412;2024-01-30T04:34:50;13.77;68.71
5938;DHT22;2994;51.220;4.412;2024-01-30T04:37:15;13.78;68.71
5938;DHT22;2994;51.220;4.412;2024-01-30T04:39:41;13.80;68.65
5938;DHT22;2994;51.220;4.412;2024-01-30T04:42:06;13.80;68.71
5938;DHT22;2994;51.220;4.412;2024-01-30T04:44:32;13.81;68.63
5938;DHT22;2994;51.220;4.412;2024-01-30T04:46:57;13.82;68.57
5938;DHT22;2994;51.220;4.412;2024-01-30T04:49:26;13.82;68.58
5938;DHT22;2994;51.220;4.412;2024-01-30T04:51:52;13.83;68.55
5938;DHT22;2994;51.220;4.412;2024-01-30T04:54:17;13.81;68.52
5938;DHT22;2994;51.220;4.412;2024-01-30T04:56:42;13.81;68.61
5938;DHT22;2994;51.220;4.412;2024-01-30T04:59:08;13.80;68.62
5938;DHT22;2994;51.220;4.412;2024-01-30T05:01:33;13.81;68.65
5938;DHT22;2994;51.220;4.412;2024-01-30T05:03:59;13.83;68.58
5938;DHT22;2994;51.220;4.412;2024-01-30T05:06:27;13.83;68.46
5938;DHT22;2994;51.220;4.412;2024-01-30T05:08:53;13.80;68.59
5938;DHT22;2994;51.220;4.412;2024-01-30T05:11:19;13.82;68.55
5938;DHT22;2994;51.220;4.412;2024-01-30T05:13:44;13.82;68.52
5938;DHT22;2994;51.220;4.412;2024-01-30T05:16:10;13.80;68.58
5938;DHT22;2994;51.220;4.412;2024-01-30T05:18:35;13.82;68.55
5938;DHT22;2994;51.220;4.412;2024-01-30T05:21:02;13.84;68.42
5938;DHT22;2994;51.220;4.412;2024-01-30T05:23:28;13.84;68.48
5938;DHT22;2994;51.220;4.412;2024-01-30T05:25:53;13.80;68.55
5938;DHT22;2994;51.220;4.412;2024-01-30T05:28:18;13.79;68.62
5938;DHT22;2994;51.220;4.412;2024-01-30T05:30:44;13.81;68.55
5938;DHT22;2994;51.220;4.412;2024-01-30T05:33:09;13.82;68.47
5938;DHT22;2994;51.220;4.412;2024-01-30T05:35:37;13.82;68.52
5938;DHT22;2994;51.220;4.412;2024-01-30T05:38:02;13.82;68.51
5938;DHT22;2994;51.220;4.412;2024-01-30T05:40:28;13.82;68.46
5938;DHT22;2994;51.220;4.412;2024-01-30T05:42:53;13.83;68.40
5938;DHT22;2994;51.220;4.412;2024-01-30T05:45:19;13.83;68.48
5938;DHT22;2994;51.220;4.412;2024-01-30T05:47:45;13.84;68.41
5938;DHT22;2994;51.220;4.412;2024-01-30T05:50:10;13.83;68.39
5938;DHT22;2994;51.220;4.412;2024-01-30T05:52:36;13.84;68.37
5938;DHT22;2994;51.220;4.412;2024-01-30T05:55:02;13.82;68.37
5938;DHT22;2994;51.220;4.412;2024-01-30T05:57:28;13.80;68.39
5938;DHT22;2994;51.220;4.412;2024-01-30T05:59:53;13.82;68.42
5938;DHT22;2994;51.220;4.412;2024-01-30T06:02:21;13.81;68.52
5938;DHT22;2994;51.220;4.412;2024-01-30T06:04:47;13.83;68.65
5938;DHT22;2994;51.220;4.412;2024-01-30T06:07:12;13.83;68.59
5938;DHT22;2994;51.220;4.412;2024-01-30T06:09:37;13.85;68.41
5938;DHT22;2994;51.220;4.412;2024-01-30T06:12:04;13.81;68.55
5938;DHT22;2994;51.220;4.412;2024-01-30T06:14:30;13.85;68.56
5938;DHT22;2994;51.220;4.412;2024-01-30T06:16:56;13.84;68.57
5938;DHT22;2994;51.220;4.412;2024-01-30T06:19:21;13.84;68.58
5938;DHT22;2994;51.220;4.412;2024-01-30T06:21:47;13.88;68.59
5938;DHT22;2994;51.220;4.412;2024-01-30T06:24:12;13.88;68.57
5938;DHT22;2994;51.220;4.412;2024-01-30T06:26:37;13.89;68.51
5938;DHT22;2994;51.220;4.412;2024-01-30T06:29:03;13.90;68.55
5938;DHT22;2994;51.220;4.412;2024-01-30T06:31:28;13.93;68.47
5938;DHT22;2994;51.220;4.412;2024-01-30T06:33:54;13.93;68.51
5938;DHT22;2994;51.220;4.412;2024-01-30T06:36:19;13.93;68.51
5938;DHT22;2994;51.220;4.412;2024-01-30T06:38:45;13.94;68.49
5938;DHT22;2994;51.220;4.412;2024-01-30T06:41:10;13.96;68.49
5938;DHT22;2994;51.220;4.412;2024-01-30T06:43:39;13.96;68.46
5938;DHT22;2994;51.220;4.412;2024-01-30T06:46:04;13.98;68.38
5938;DHT22;2994;51.220;4.412;2024-01-30T06:48:30;13.97;68.38
5938;DHT22;2994;51.220;4.412;2024-01-30T06:50:57;13.98;68.48
5938;DHT22;2994;51.220;4.412;2024-01-30T06:53:23;13.99;68.46
5938;DHT22;2994;51.220;4.412;2024-01-30T06:55:48;14.00;68.54
5938;DHT22;2994;51.220;4.412;2024-01-30T06:58:14;14.00;68.53
5938;DHT22;2994;51.220;4.412;2024-01-30T07:00:39;14.04;68.30
5938;DHT22;2994;51.220;4.412;2024-01-30T07:03:05;14.03;68.37
5938;DHT22;2994;51.220;4.412;2024-01-30T07:05:31;14.01;68.48
5938;DHT22;2994;51.220;4.412;2024-01-30T07:08:00;14.01;68.52
5938;DHT22;2994;51.220;4.412;2024-01-30T07:10:25;14.03;68.46
5938;DHT22;2994;51.220;4.412;2024-01-30T07:12:54;14.05;68.39
5938;DHT22;2994;51.220;4.412;2024-01-30T07:15:19;14.05;68.37
5938;DHT22;2994;51.220;4.412;2024-01-30T07:17:45;14.07;68.40
5938;DHT22;2994;51.220;4.412;2024-01-30T07:20:11;14.15;68.03
5938;DHT22;2994;51.220;4.412;2024-01-30T07:22:36;14.14;68.01
5938;DHT22;2994;51.220;4.412;2024-01-30T07:25:02;14.09;68.17
5938;DHT22;2994;51.220;4.412;2024-01-30T07:27:28;14.11;68.11
5938;DHT22;2994;51.220;4.412;2024-01-30T07:29:53;14.07;68.25
5938;DHT22;2994;51.220;4.412;2024-01-30T07:32:19;14.09;68.24
5938;DHT22;2994;51.220;4.412;2024-01-30T07:34:44;14.09;68.23
5938;DHT22;2994;51.220;4.412;2024-01-30T07:37:10;14.11;68.05
5938;DHT22;2994;51.220;4.412;2024-01-30T07:39:36;14.06;68.45
5938;DHT22;2994;51.220;4.412;2024-01-30T07:42:02;14.07;68.36
5938;DHT22;2994;51.220;4.412;2024-01-30T07:44:28;14.06;68.47
5938;DHT22;2994;51.220;4.412;2024-01-30T07:46:53;14.04;68.57
5938;DHT22;2994;51.220;4.412;2024-01-30T07:49:20;14.04;68.57
5938;DHT22;2994;51.220;4.412;2024-01-30T07:51:45;14.07;68.49
5938;DHT22;2994;51.220;4.412;2024-01-30T07:54:14;14.04;68.62
5938;DHT22;2994;51.220;4.412;2024-01-30T07:56:40;14.05;68.65
5938;DHT22;2994;51.220;4.412;2024-01-30T07:59:05;14.05;68.51
5938;DHT22;2994;51.220;4.412;2024-01-30T08:01:31;14.08;68.52
5938;DHT22;2994;51.220;4.412;2024-01-30T08:03:56;14.09;68.60
5938;DHT22;2994;51.220;4.412;2024-01-30T08:06:22;14.07;68.73
5938;DHT22;2994;51.220;4.412;2024-01-30T08:08:47;14.09;68.71
5938;DHT22;2994;51.220;4.412;2024-01-30T08:11:13;14.13;68.61
5938;DHT22;2994;51.220;4.412;2024-01-30T08:13:38;14.14;68.66
5938;DHT22;2994;51.220;4.412;2024-01-30T08:16:04;14.15;68.69
5938;DHT22;2994;51.220;4.412;2024-01-30T08:18:29;14.17;68.66
5938;DHT22;2994;51.220;4.412;2024-01-30T08:20:55;14.17;68.87
5938;DHT22;2994;51.220;4.412;2024-01-30T08:23:20;14.17;68.93
5938;DHT22;2994;51.220;4.412;2024-01-30T08:25:46;14.20;68.94
5938;DHT22;2994;51.220;4.412;2024-01-30T08:28:11;14.22;68.91
5938;DHT22;2994;51.220;4.412;2024-01-30T08:30:37;14.28;68.81
5938;DHT22;2994;51.220;4.412;2024-01-30T08:33:04;14.28;68.94
5938;DHT22;2994;51.220;4.412;2024-01-30T08:35:30;14.32;68.95
5938;DHT22;2994;51.220;4.412;2024-01-30T08:37:58;14.37;68.71
5938;DHT22;2994;51.220;4.412;2024-01-30T08:40:24;14.36;68.67
5938;DHT22;2994;51.220;4.412;2024-01-30T08:42:49;14.41;68.49
5938;DHT22;2994;51.220;4.412;2024-01-30T08:45:15;14.37;68.78
5938;DHT22;2994;51.220;4.412;2024-01-30T08:47:41;14.34;68.97
5938;DHT22;2994;51.220;4.412;2024-01-30T08:50:07;14.34;69.00
5938;DHT22;2994;51.220;4.412;2024-01-30T08:52:32;14.35;68.94
5938;DHT22;2994;51.220;4.412;2024-01-30T08:54:59;14.37;68.85
5938;DHT22;2994;51.220;4.412;2024-01-30T08:57:25;14.35;69.00
5938;DHT22;2994;51.220;4.412;2024-01-30T08:59:54;14.34;69.10
5938;DHT22;2994;51.220;4.412;2024-01-30T09:02:19;14.35;69.17
5938;DHT22;2994;51.220;4.412;2024-01-30T09:04:44;14.35;69.15
5938;DHT22;2994;51.220;4.412;2024-01-30T09:07:10;14.41;68.94
5938;DHT22;2994;51.220;4.412;2024-01-30T09:09:37;14.35;69.13
5938;DHT22;2994;51.220;4.412;2024-01-30T09:12:04;14.40;69.00
5938;DHT22;2994;51.220;4.412;2024-01-30T09:14:32;14.47;68.86
5938;DHT22;2994;51.220;4.412;2024-01-30T09:16:57;14.43;69.04
5938;DHT22;2994;51.220;4.412;2024-01-30T09:19:23;14.44;69.08
5938;DHT22;2994;51.220;4.412;2024-01-30T09:21:48;14.50;68.96
5938;DHT22;2994;51.220;4.412;2024-01-30T09:24:14;14.53;68.76
5938;DHT22;2994;51.220;4.412;2024-01-30T09:26:39;14.51;68.96
5938;DHT22;2994;51.220;4.412;2024-01-30T09:29:05;14.49;69.10
5938;DHT22;2994;51.220;4.412;2024-01-30T09:31:30;14.50;69.19
5938;DHT22;2994;51.220;4.412;2024-01-30T09:33:55;14.50;69.25
5938;DHT22;2994;51.220;4.412;2024-01-30T09:36:21;14.48;69.36
5938;DHT22;2994;51.220;4.412;2024-01-30T09:38:47;14.40;69.73
5938;DHT22;2994;51.220;4.412;2024-01-30T09:41:13;14.44;69.68
5938;DHT22;2994;51.220;4.412;2024-01-30T09:43:38;14.47;69.78
5938;DHT22;2994;51.220;4.412;2024-01-30T09:46:11;14.48;69.87
5938;DHT22;2994;51.220;4.412;2024-01-30T09:48:40;14.49;69.81
5938;DHT22;2994;51.220;4.412;2024-01-30T09:51:07;14.51;69.77
5938;DHT22;2994;51.220;4.412;2024-01-30T09:53:33;14.56;69.65
5938;DHT22;2994;51.220;4.412;2024-01-30T09:55:59;14.58;69.61
5938;DHT22;2994;51.220;4.412;2024-01-30T09:58:25;14.63;69.43
5938;DHT22;2994;51.220;4.412;2024-01-30T10:00:51;14.63;69.45
5938;DHT22;2994;51.220;4.412;2024-01-30T10:03:18;14.64;69.41
5938;DHT22;2994;51.220;4.412;2024-01-30T10:05:53;14.63;69.87
5938;DHT22;2994;51.220;4.412;2024-01-30T10:08:20;14.64;69.83
5938;DHT22;2994;51.220;4.412;2024-01-30T10:10:47;14.62;69.90
5938;DHT22;2994;51.220;4.412;2024-01-30T10:13:12;14.57;70.01
5938;DHT22;2994;51.220;4.412;2024-01-30T10:15:38;14.57;69.92
5938;DHT22;2994;51.220;4.412;2024-01-30T10:18:04;14.60;69.64
5938;DHT22;2994;51.220;4.412;2024-01-30T10:20:32;14.56;69.78
5938;DHT22;2994;51.220;4.412;2024-01-30T10:22:58;14.60;69.31
5938;DHT22;2994;51.220;4.412;2024-01-30T10:25:23;14.58;69.14
5938;DHT22;2994;51.220;4.412;2024-01-30T10:27:55;14.54;69.23
5938;DHT22;2994;51.220;4.412;2024-01-30T10:30:24;14.48;69.23
5938;DHT22;2994;51.220;4.412;2024-01-30T10:32:54;14.55;68.65
5938;DHT22;2994;51.220;4.412;2024-01-30T10:35:20;14.54;68.20
5938;DHT22;2994;51.220;4.412;2024-01-30T10:37:48;14.59;67.10
5938;DHT22;2994;51.220;4.412;2024-01-30T10:40:14;14.50;66.59
5938;DHT22;2994;51.220;4.412;2024-01-30T10:42:46;14.47;65.18
5938;DHT22;2994;51.220;4.412;2024-01-30T10:45:22;14.49;64.88
5938;DHT22;2994;51.220;4.412;2024-01-30T10:47:59;14.43;64.63
5938;DHT22;2994;51.220;4.412;2024-01-30T10:50:37;14.45;64.21
5938;DHT22;2994;51.220;4.412;2024-01-30T10:53:04;14.36;63.93
5938;DHT22;2994;51.220;4.412;2024-01-30T10:55:30;14.37;62.95
5938;DHT22;2994;51.220;4.412;2024-01-30T10:57:56;14.35;62.89
5938;DHT22;2994;51.220;4.412;2024-01-30T11:00:22;14.36;62.10
5938;DHT22;2994;51.220;4.412;2024-01-30T11:02:49;14.36;61.54
5938;DHT22;2994;51.220;4.412;2024-01-30T11:05:28;14.34;60.44
5938;DHT22;2994;51.220;4.412;2024-01-30T11:07:54;14.39;61.02
5938;DHT22;2994;51.220;4.412;2024-01-30T11:10:20;14.37;61.17
5938;DHT22;2994;51.220;4.412;2024-01-30T11:12:46;14.34;61.21
5938;DHT22;2994;51.220;4.412;2024-01-30T11:15:18;14.40;61.61
5938;DHT22;2994;51.220;4.412;2024-01-30T11:20:25;14.47;60.79
5938;DHT22;2994;51.220;4.412;2024-01-30T11:22:52;14.44;61.09
5938;DHT22;2994;51.220;4.412;2024-01-30T11:25:20;14.43;61.05
5938;DHT22;2994;51.220;4.412;2024-01-30T11:27:46;14.41;61.13
5938;DHT22;2994;51.220;4.412;2024-01-30T11:30:22;14.39;61.31
5938;DHT22;2994;51.220;4.412;2024-01-30T11:33:09;14.47;60.43
5938;DHT22;2994;51.220;4.412;2024-01-30T11:35:39;14.49;60.60
5938;DHT22;2994;51.220;4.412;2024-01-30T11:38:07;14.45;60.53
5938;DHT22;2994;51.220;4.412;2024-01-30T11:40:33;14.45;60.34
5938;DHT22;2994;51.220;4.412;2024-01-30T11:43:00;14.38;60.07
5938;DHT22;2994;51.220;4.412;2024-01-30T11:45:27;14.41;59.57
5938;DHT22;2994;51.220;4.412;2024-01-30T11:47:53;14.44;59.17
5938;DHT22;2994;51.220;4.412;2024-01-30T11:50:18;14.45;58.99
5938;DHT22;2994;51.220;4.412;2024-01-30T11:52:44;14.48;58.83
5938;DHT22;2994;51.220;4.412;2024-01-30T11:55:10;14.55;58.36
5938;DHT22;2994;51.220;4.412;2024-01-30T11:57:35;14.44;58.77
5938;DHT22;2994;51.220;4.412;2024-01-30T12:00:03;14.51;58.00
5938;DHT22;2994;51.220;4.412;2024-01-30T12:02:42;14.51;58.47
5938;DHT22;2994;51.220;4.412;2024-01-30T12:05:08;14.49;57.90
5938;DHT22;2994;51.220;4.412;2024-01-30T12:07:34;14.48;58.03
5938;DHT22;2994;51.220;4.412;2024-01-30T12:10:00;14.43;58.76
5938;DHT22;2994;51.220;4.412;2024-01-30T12:12:27;14.43;58.87
5938;DHT22;2994;51.220;4.412;2024-01-30T12:14:53;14.51;58.26
5938;DHT22;2994;51.220;4.412;2024-01-30T12:17:28;14.38;59.20
5938;DHT22;2994;51.220;4.412;2024-01-30T12:20:11;14.40;59.29
5938;DHT22;2994;51.220;4.412;2024-01-30T12:22:42;14.42;58.98
5938;DHT22;2994;51.220;4.412;2024-01-30T12:25:11;14.37;59.16
5938;DHT22;2994;51.220;4.412;2024-01-30T12:27:37;14.43;58.50
5938;DHT22;2994;51.220;4.412;2024-01-30T12:30:10;14.39;58.85
5938;DHT22;2994;51.220;4.412;2024-01-30T12:32:40;14.42;58.63
5938;DHT22;2994;51.220;4.412;2024-01-30T12:35:11;14.35;58.53
5938;DHT22;2994;51.220;4.412;2024-01-30T12:37:37;14.29;59.06
5938;DHT22;2994;51.220;4.412;2024-01-30T12:40:03;14.27;59.27
5938;DHT22;2994;51.220;4.412;2024-01-30T12:42:29;14.28;59.35
5938;DHT22;2994;51.220;4.412;2024-01-30T12:45:03;14.28;59.58
5938;DHT22;2994;51.220;4.412;2024-01-30T12:47:31;14.32;59.42
5938;DHT22;2994;51.220;4.412;2024-01-30T12:49:57;14.30;59.29
5938;DHT22;2994;51.220;4.412;2024-01-30T12:52:23;14.26;59.54
5938;DHT22;2994;51.220;4.412;2024-01-30T12:54:49;14.26;59.76
5938;DHT22;2994;51.220;4.412;2024-01-30T12:57:15;14.26;59.67
5938;DHT22;2994;51.220;4.412;2024-01-30T12:59:42;14.23;59.96
5938;DHT22;2994;51.220;4.412;2024-01-30T13:02:07;14.23;59.99
5938;DHT22;2994;51.220;4.412;2024-01-30T13:04:33;14.18;59.88
5938;DHT22;2994;51.220;4.412;2024-01-30T13:06:59;14.20;60.24
5938;DHT22;2994;51.220;4.412;2024-01-30T13:09:26;14.20;60.35
5938;DHT22;2994;51.220;4.412;2024-01-30T13:11:51;14.20;60.51
5938;DHT22;2994;51.220;4.412;2024-01-30T13:14:17;14.17;60.83
5938;DHT22;2994;51.220;4.412;2024-01-30T13:16:43;14.15;60.20
5938;DHT22;2994;51.220;4.412;2024-01-30T13:19:08;14.05;60.35
5938;DHT22;2994;51.220;4.412;2024-01-30T13:21:34;13.96;60.94
5938;DHT22;2994;51.220;4.412;2024-01-30T13:23:59;13.92;61.38
5938;DHT22;2994;51.220;4.412;2024-01-30T13:26:25;13.85;61.36
5938;DHT22;2994;51.220;4.412;2024-01-30T13:28:51;13.66;61.21
5938;DHT22;2994;51.220;4.412;2024-01-30T13:31:17;13.24;62.50
5938;DHT22;2994;51.220;4.412;2024-01-30T13:33:42;13.38;61.90
5938;DHT22;2994;51.220;4.412;2024-01-30T13:36:09;13.27;62.54
5938;DHT22;2994;51.220;4.412;2024-01-30T13:38:37;13.34;62.22
5938;DHT22;2994;51.220;4.412;2024-01-30T13:41:02;13.27;61.99
5938;DHT22;2994;51.220;4.412;2024-01-30T13:43:28;13.26;62.04
5938;DHT22;2994;51.220;4.412;2024-01-30T13:45:54;13.17;62.16
5938;DHT22;2994;51.220;4.412;2024-01-30T13:48:19;13.20;62.15
5938;DHT22;2994;51.220;4.412;2024-01-30T13:50:45;13.15;62.04
5938;DHT22;2994;51.220;4.412;2024-01-30T13:53:11;13.11;62.29
5938;DHT22;2994;51.220;4.412;2024-01-30T13:55:36;13.15;62.07
5938;DHT22;2994;51.220;4.412;2024-01-30T13:58:02;13.11;62.08
5938;DHT22;2994;51.220;4.412;2024-01-30T14:00:28;12.92;62.74
5938;DHT22;2994;51.220;4.412;2024-01-30T14:02:53;13.07;62.22
5938;DHT22;2994;51.220;4.412;2024-01-30T14:05:20;13.06;62.21
5938;DHT22;2994;51.220;4.412;2024-01-30T14:07:46;13.06;62.16
5938;DHT22;2994;51.220;4.412;2024-01-30T14:10:12;13.01;62.28
5938;DHT22;2994;51.220;4.412;2024-01-30T14:12:38;13.01;62.43
5938;DHT22;2994;51.220;4.412;2024-01-30T14:15:04;12.89;63.02
5938;DHT22;2994;51.220;4.412;2024-01-30T14:17:29;12.88;63.28
5938;DHT22;2994;51.220;4.412;2024-01-30T14:19:54;12.97;62.70
5938;DHT22;2994;51.220;4.412;2024-01-30T14:22:20;12.88;62.76
5938;DHT22;2994;51.220;4.412;2024-01-30T14:24:46;13.01;62.35
5938;DHT22;2994;51.220;4.412;2024-01-30T14:27:12;12.97;62.66
5938;DHT22;2994;51.220;4.412;2024-01-30T14:29:37;13.02;62.50
5938;DHT22;2994;51.220;4.412;2024-01-30T14:32:03;13.01;62.67
5938;DHT22;2994;51.220;4.412;2024-01-30T14:34:29;13.04;62.71
5938;DHT22;2994;51.220;4.412;2024-01-30T14:36:55;13.08;62.02
5938;DHT22;2994;51.220;4.412;2024-01-30T14:39:20;13.04;62.41
5938;DHT22;2994;51.220;4.412;2024-01-30T14:41:45;13.04;62.48
5938;DHT22;2994;51.220;4.412;2024-01-30T14:44:11;13.02;62.74
5938;DHT22;2994;51.220;4.412;2024-01-30T14:46:37;13.04;62.85
5938;DHT22;2994;51.220;4.412;2024-01-30T14:49:03;13.03;62.97
5938;DHT22;2994;51.220;4.412;2024-01-30T14:51:31;13.15;62.34
5938;DHT22;2994;51.220;4.412;2024-01-30T14:53:56;13.12;62.15
5938;DHT22;2994;51.220;4.412;2024-01-30T14:56:22;12.99;62.41
5938;DHT22;2994;51.220;4.412;2024-01-30T14:58:48;13.06;62.33
5938;DHT22;2994;51.220;4.412;2024-01-30T15:01:14;13.07;62.22
5938;DHT22;2994;51.220;4.412;2024-01-30T15:03:39;13.16;61.81
5938;DHT22;2994;51.220;4.412;2024-01-30T15:06:06;13.04;62.21
5938;DHT22;2994;51.220;4.412;2024-01-30T15:08:31;12.95;62.70
5938;DHT22;2994;51.220;4.412;2024-01-30T15:10:58;12.85;63.04
5938;DHT22;2994;51.220;4.412;2024-01-30T15:13:26;12.82;63.24
5938;DHT22;2994;51.220;4.412;2024-01-30T15:15:51;12.81;63.47
5938;DHT22;2994;51.220;4.412;2024-01-30T15:18:18;12.84;63.44
5938;DHT22;2994;51.220;4.412;2024-01-30T15:20:44;12.79;63.72
5938;DHT22;2994;51.220;4.412;2024-01-30T15:23:09;12.79;64.24
5938;DHT22;2994;51.220;4.412;2024-01-30T15:25:34;12.77;64.40
5938;DHT22;2994;51.220;4.412;2024-01-30T15:28:00;12.74;64.18
5938;DHT22;2994;51.220;4.412;2024-01-30T15:30:25;12.59;64.57
5938;DHT22;2994;51.220;4.412;2024-01-30T15:32:51;12.59;64.70
5938;DHT22;2994;51.220;4.412;2024-01-30T15:35:16;12.60;64.66
5938;DHT22;2994;51.220;4.412;2024-01-30T15:37:42;12.65;64.40
5938;DHT22;2994;51.220;4.412;2024-01-30T15:40:07;12.42;65.40
5938;DHT22;2994;51.220;4.412;2024-01-30T15:42:34;12.37;65.33
5938;DHT22;2994;51.220;4.412;2024-01-30T15:44:59;12.23;65.94
5938;DHT22;2994;51.220;4.412;2024-01-30T15:47:25;12.31;65.88
5938;DHT22;2994;51.220;4.412;2024-01-30T15:49:50;12.35;65.82
5938;DHT22;2994;51.220;4.412;2024-01-30T15:52:16;12.31;65.68
5938;DHT22;2994;51.220;4.412;2024-01-30T15:54:43;12.29;65.85
5938;DHT22;2994;51.220;4.412;2024-01-30T15:57:09;12.27;65.72
5938;DHT22;2994;51.220;4.412;2024-01-30T15:59:34;12.17;66.11